sensor_id;sensor_type;location;lat;lon;timestamp;pressure;altitude;pressure_sealevel;temperature;humidity
21096;BME280;10706;49.036;12.112;2022-08-19T00:01:21;97032.63;;;19.14;94.55
21096;BME280;10706;49.036;12.112;2022-08-19T00:03:48;97025.69;;;18.99;95.37
21096;BME280;10706;49.036;12.112;2022-08-19T00:06:17;97027.22;;;18.92;95.85
21096;BME280;10706;49.036;12.112;2022-08-19T00:08:43;97040.56;;;18.88;96.43
21096;BME280;10706;49.036;12.112;2022-08-19T00:11:10;97040.41;;;18.84;96.69
21096;BME280;10706;49.036;12.112;2022-08-19T00:13:36;97040.06;;;18.86;96.42
21096;BME280;10706;49.036;12.112;2022-08-19T00:16:04;97042.78;;;18.86;96.48
21096;BME280;10706;49.036;12.112;2022-08-19T00:18:31;97046.41;;;18.81;97.04
21096;BME280;10706;49.036;12.112;2022-08-19T00:20:57;97061.84;;;18.81;97.17
21096;BME280;10706;49.036;12.112;2022-08-19T00:23:25;97075.44;;;18.76;96.46
21096;BME280;10706;49.036;12.112;2022-08-19T00:25:51;97076.16;;;18.81;96.03
21096;BME280;10706;49.036;12.112;2022-08-19T00:28:18;97094.06;;;18.91;96.16
21096;BME280;10706;49.036;12.112;2022-08-19T00:30:45;97086.81;;;19.00;96.01
21096;BME280;10706;49.036;12.112;2022-08-19T00:33:11;97081.19;;;19.11;95.44
21096;BME280;10706;49.036;12.112;2022-08-19T00:35:36;97081.94;;;18.89;95.70
21096;BME280;10706;49.036;12.112;2022-08-19T00:38:04;97078.69;;;19.00;94.55
21096;BME280;10706;49.036;12.112;2022-08-19T00:40:32;97081.47;;;18.87;94.90
21096;BME280;10706;49.036;12.112;2022-08-19T00:42:58;97088.06;;;18.80;94.88
21096;BME280;10706;49.036;12.112;2022-08-19T00:45:27;97092.66;;;18.80;95.59
21096;BME280;10706;49.036;12.112;2022-08-19T00:47:55;97094.81;;;19.06;93.37
21096;BME280;10706;49.036;12.112;2022-08-19T00:50:22;97103.06;;;19.00;93.35
21096;BME280;10706;49.036;12.112;2022-08-19T00:52:50;97098.56;;;18.96;94.08
21096;BME280;10706;49.036;12.112;2022-08-19T00:55:21;97092.13;;;19.06;93.88
21096;BME280;10706;49.036;12.112;2022-08-19T00:58:06;97089.53;;;19.00;93.81
21096;BME280;10706;49.036;12.112;2022-08-19T01:00:34;97088.28;;;19.07;93.15
21096;BME280;10706;49.036;12.112;2022-08-19T01:03:06;97086.59;;;19.11;92.75
21096;BME280;10706;49.036;12.112;2022-08-19T01:05:33;97094.56;;;18.93;94.23
21096;BME280;10706;49.036;12.112;2022-08-19T01:08:03;97098.72;;;18.99;93.47
21096;BME280;10706;49.036;12.112;2022-08-19T01:10:33;97114.53;;;18.83;94.42
21096;BME280;10706;49.036;12.112;2022-08-19T01:13:02;97116.13;;;18.84;94.96
21096;BME280;10706;49.036;12.112;2022-08-19T01:15:42;97124.31;;;18.79;95.41
21096;BME280;10706;49.036;12.112;2022-08-19T01:18:13;97127.81;;;18.80;95.38
21096;BME280;10706;49.036;12.112;2022-08-19T01:20:40;97128.34;;;18.82;95.64
21096;BME280;10706;49.036;12.112;2022-08-19T01:23:07;97136.47;;;18.82;95.33
21096;BME280;10706;49.036;12.112;2022-08-19T01:25:49;97128.63;;;18.80;95.42
21096;BME280;10706;49.036;12.112;2022-08-19T01:28:24;97120.81;;;18.79;94.70
21096;BME280;10706;49.036;12.112;2022-08-19T01:30:52;97106.72;;;18.82;94.78
21096;BME280;10706;49.036;12.112;2022-08-19T01:33:19;97117.47;;;19.10;91.76
21096;BME280;10706;49.036;12.112;2022-08-19T01:35:46;97114.38;;;19.02;92.45
21096;BME280;10706;49.036;12.112;2022-08-19T01:38:26;97123.09;;;18.99;92.72
21096;BME280;10706;49.036;12.112;2022-08-19T01:40:52;97117.81;;;18.94;93.34
21096;BME280;10706;49.036;12.112;2022-08-19T01:43:18;97129.53;;;18.90;94.10
21096;BME280;10706;49.036;12.112;2022-08-19T01:45:45;97132.22;;;18.90;93.19
21096;BME280;10706;49.036;12.112;2022-08-19T01:48:12;97132.91;;;18.95;93.68
21096;BME280;10706;49.036;12.112;2022-08-19T01:50:38;97127.50;;;18.95;93.62
21096;BME280;10706;49.036;12.112;2022-08-19T01:53:07;97129.72;;;18.93;92.83
21096;BME280;10706;49.036;12.112;2022-08-19T01:55:41;97119.00;;;18.88;93.84
21096;BME280;10706;49.036;12.112;2022-08-19T01:58:15;97096.28;;;18.89;93.72
21096;BME280;10706;49.036;12.112;2022-08-19T02:00:43;97098.44;;;19.01;92.85
21096;BME280;10706;49.036;12.112;2022-08-19T02:03:09;97093.66;;;18.98;92.15
21096;BME280;10706;49.036;12.112;2022-08-19T02:05:37;97102.16;;;19.05;91.91
21096;BME280;10706;49.036;12.112;2022-08-19T02:08:03;97102.28;;;18.86;93.37
21096;BME280;10706;49.036;12.112;2022-08-19T02:10:29;97107.28;;;18.93;93.03
21096;BME280;10706;49.036;12.112;2022-08-19T02:12:54;97118.22;;;18.74;94.05
21096;BME280;10706;49.036;12.112;2022-08-19T02:15:21;97121.53;;;18.71;94.35
21096;BME280;10706;49.036;12.112;2022-08-19T02:17:47;97111.00;;;18.69;94.60
21096;BME280;10706;49.036;12.112;2022-08-19T02:20:14;97110.72;;;18.71;95.02
21096;BME280;10706;49.036;12.112;2022-08-19T02:22:41;97120.31;;;18.77;95.27
21096;BME280;10706;49.036;12.112;2022-08-19T02:25:13;97128.84;;;18.70;94.98
21096;BME280;10706;49.036;12.112;2022-08-19T02:27:40;97138.94;;;18.78;94.50
21096;BME280;10706;49.036;12.112;2022-08-19T02:30:12;97132.44;;;18.79;94.55
21096;BME280;10706;49.036;12.112;2022-08-19T02:32:38;97126.13;;;18.84;94.26
21096;BME280;10706;49.036;12.112;2022-08-19T02:35:05;97117.41;;;18.87;94.10
21096;BME280;10706;49.036;12.112;2022-08-19T02:37:31;97119.81;;;18.89;94.41
21096;BME280;10706;49.036;12.112;2022-08-19T02:40:15;97123.53;;;18.93;94.39
21096;BME280;10706;49.036;12.112;2022-08-19T02:42:43;97110.47;;;18.95;93.94
21096;BME280;10706;49.036;12.112;2022-08-19T02:45:12;97105.25;;;18.98;94.29
21096;BME280;10706;49.036;12.112;2022-08-19T02:47:38;97113.97;;;18.95;93.40
21096;BME280;10706;49.036;12.112;2022-08-19T02:50:04;97113.59;;;18.88;93.96
21096;BME280;10706;49.036;12.112;2022-08-19T02:52:33;97108.72;;;18.90;93.94
21096;BME280;10706;49.036;12.112;2022-08-19T02:54:59;97108.06;;;18.93;94.06
21096;BME280;10706;49.036;12.112;2022-08-19T02:57:26;97104.47;;;18.98;94.19
21096;BME280;10706;49.036;12.112;2022-08-19T02:59:52;97099.66;;;18.95;94.06
21096;BME280;10706;49.036;12.112;2022-08-19T03:02:18;97097.44;;;18.97;94.14
21096;BME280;10706;49.036;12.112;2022-08-19T03:04:44;97101.56;;;18.94;94.50
21096;BME280;10706;49.036;12.112;2022-08-19T03:07:14;97103.28;;;18.90;94.21
21096;BME280;10706;49.036;12.112;2022-08-19T03:09:40;97096.66;;;18.96;93.89
21096;BME280;10706;49.036;12.112;2022-08-19T03:12:06;97105.19;;;18.90;94.19
21096;BME280;10706;49.036;12.112;2022-08-19T03:14:32;97108.19;;;18.88;94.42
21096;BME280;10706;49.036;12.112;2022-08-19T03:16:58;97114.72;;;18.87;94.41
21096;BME280;10706;49.036;12.112;2022-08-19T03:19:24;97114.03;;;18.81;94.27
21096;BME280;10706;49.036;12.112;2022-08-19T03:21:51;97108.31;;;18.83;94.38
21096;BME280;10706;49.036;12.112;2022-08-19T03:24:18;97103.47;;;18.94;94.52
21096;BME280;10706;49.036;12.112;2022-08-19T03:26:50;97108.28;;;18.97;93.86
21096;BME280;10706;49.036;12.112;2022-08-19T03:29:18;97125.63;;;18.96;94.40
21096;BME280;10706;49.036;12.112;2022-08-19T03:31:45;97140.53;;;18.93;93.91
21096;BME280;10706;49.036;12.112;2022-08-19T03:34:18;97159.47;;;18.93;93.44
21096;BME280;10706;49.036;12.112;2022-08-19T03:36:45;97166.72;;;18.84;93.11
21096;BME280;10706;49.036;12.112;2022-08-19T03:39:12;97166.59;;;18.89;93.47
21096;BME280;10706;49.036;12.112;2022-08-19T03:41:41;97166.31;;;18.91;93.73
21096;BME280;10706;49.036;12.112;2022-08-19T03:44:07;97157.75;;;18.97;93.75
21096;BME280;10706;49.036;12.112;2022-08-19T03:46:34;97144.13;;;19.02;93.83
21096;BME280;10706;49.036;12.112;2022-08-19T03:49:04;97146.44;;;18.95;93.97
21096;BME280;10706;49.036;12.112;2022-08-19T03:51:37;97142.94;;;18.95;94.67
21096;BME280;10706;49.036;12.112;2022-08-19T03:54:08;97143.44;;;18.97;93.42
21096;BME280;10706;49.036;12.112;2022-08-19T03:56:36;97150.34;;;19.03;92.89
21096;BME280;10706;49.036;12.112;2022-08-19T03:59:03;97138.63;;;19.08;92.29
21096;BME280;10706;49.036;12.112;2022-08-19T04:01:29;97138.50;;;19.13;90.86
21096;BME280;10706;49.036;12.112;2022-08-19T04:03:59;97151.53;;;19.11;91.75
21096;BME280;10706;49.036;12.112;2022-08-19T04:06:29;97158.66;;;19.07;92.79
21096;BME280;10706;49.036;12.112;2022-08-19T04:09:00;97175.72;;;19.07;92.58
21096;BME280;10706;49.036;12.112;2022-08-19T04:11:45;97179.50;;;19.06;92.84
21096;BME280;10706;49.036;12.112;2022-08-19T04:14:15;97171.78;;;19.13;92.82
21096;BME280;10706;49.036;12.112;2022-08-19T04:16:42;97177.47;;;19.12;93.56
21096;BME280;10706;49.036;12.112;2022-08-19T04:19:10;97189.59;;;19.14;93.54
21096;BME280;10706;49.036;12.112;2022-08-19T04:21:36;97191.41;;;19.19;93.77
21096;BME280;10706;49.036;12.112;2022-08-19T04:24:03;97186.59;;;19.16;93.19
21096;BME280;10706;49.036;12.112;2022-08-19T04:26:33;97190.91;;;19.17;92.59
21096;BME280;10706;49.036;12.112;2022-08-19T04:29:03;97194.41;;;19.17;92.60
21096;BME280;10706;49.036;12.112;2022-08-19T04:31:32;97210.56;;;19.22;91.21
21096;BME280;10706;49.036;12.112;2022-08-19T04:34:05;97216.56;;;19.19;91.65
21096;BME280;10706;49.036;12.112;2022-08-19T04:36:35;97216.84;;;19.18;92.25
21096;BME280;10706;49.036;12.112;2022-08-19T04:39:11;97220.78;;;19.12;92.49
21096;BME280;10706;49.036;12.112;2022-08-19T04:41:37;97211.78;;;19.16;92.11
21096;BME280;10706;49.036;12.112;2022-08-19T04:44:22;97198.78;;;19.27;91.72
21096;BME280;10706;49.036;12.112;2022-08-19T04:46:50;97184.75;;;19.39;91.47
21096;BME280;10706;49.036;12.112;2022-08-19T04:49:21;97183.03;;;19.43;90.88
21096;BME280;10706;49.036;12.112;2022-08-19T04:51:49;97195.56;;;19.39;90.71
21096;BME280;10706;49.036;12.112;2022-08-19T04:54:17;97206.63;;;19.29;91.51
21096;BME280;10706;49.036;12.112;2022-08-19T04:56:43;97214.44;;;19.30;91.72
21096;BME280;10706;49.036;12.112;2022-08-19T04:59:10;97223.13;;;19.41;91.70
21096;BME280;10706;49.036;12.112;2022-08-19T05:01:36;97222.94;;;19.37;91.82
21096;BME280;10706;49.036;12.112;2022-08-19T05:04:05;97225.03;;;19.40;91.53
21096;BME280;10706;49.036;12.112;2022-08-19T05:06:33;97211.50;;;19.40;91.55
21096;BME280;10706;49.036;12.112;2022-08-19T05:09:02;97220.63;;;19.45;91.38
21096;BME280;10706;49.036;12.112;2022-08-19T05:11:33;97220.66;;;19.67;88.97
21096;BME280;10706;49.036;12.112;2022-08-19T05:13:59;97226.88;;;19.54;90.16
21096;BME280;10706;49.036;12.112;2022-08-19T05:16:27;97233.31;;;19.58;90.37
21096;BME280;10706;49.036;12.112;2022-08-19T05:18:54;97229.59;;;19.54;90.15
21096;BME280;10706;49.036;12.112;2022-08-19T05:21:41;97240.56;;;19.49;90.43
21096;BME280;10706;49.036;12.112;2022-08-19T05:24:29;97240.56;;;19.49;89.71
21096;BME280;10706;49.036;12.112;2022-08-19T05:26:55;97240.66;;;19.43;90.39
21096;BME280;10706;49.036;12.112;2022-08-19T05:29:24;97236.72;;;19.50;89.77
21096;BME280;10706;49.036;12.112;2022-08-19T05:31:52;97245.69;;;19.50;89.32
21096;BME280;10706;49.036;12.112;2022-08-19T05:34:22;97256.81;;;19.49;89.24
21096;BME280;10706;49.036;12.112;2022-08-19T05:36:54;97251.31;;;19.40;90.91
21096;BME280;10706;49.036;12.112;2022-08-19T05:39:26;97247.81;;;19.39;90.15
21096;BME280;10706;49.036;12.112;2022-08-19T05:41:57;97246.09;;;19.43;90.21
21096;BME280;10706;49.036;12.112;2022-08-19T05:44:26;97249.28;;;19.46;90.08
21096;BME280;10706;49.036;12.112;2022-08-19T05:46:52;97248.88;;;19.52;90.19
21096;BME280;10706;49.036;12.112;2022-08-19T05:49:21;97252.38;;;19.53;90.17
21096;BME280;10706;49.036;12.112;2022-08-19T05:51:48;97253.63;;;19.47;91.03
21096;BME280;10706;49.036;12.112;2022-08-19T05:54:14;97245.09;;;19.39;91.03
21096;BME280;10706;49.036;12.112;2022-08-19T05:56:42;97247.56;;;19.50;90.83
21096;BME280;10706;49.036;12.112;2022-08-19T05:59:10;97240.44;;;19.54;90.90
21096;BME280;10706;49.036;12.112;2022-08-19T06:01:43;97246.66;;;19.54;91.23
21096;BME280;10706;49.036;12.112;2022-08-19T06:04:11;97241.13;;;19.59;90.77
21096;BME280;10706;49.036;12.112;2022-08-19T06:06:37;97245.03;;;19.67;91.19
21096;BME280;10706;49.036;12.112;2022-08-19T06:09:05;97235.31;;;19.89;88.94
21096;BME280;10706;49.036;12.112;2022-08-19T06:14:14;97226.63;;;19.78;89.43
21096;BME280;10706;49.036;12.112;2022-08-19T06:16:42;97228.13;;;19.84;88.99
21096;BME280;10706;49.036;12.112;2022-08-19T06:19:15;97226.53;;;19.83;89.58
21096;BME280;10706;49.036;12.112;2022-08-19T06:21:45;97223.81;;;19.83;89.80
21096;BME280;10706;49.036;12.112;2022-08-19T06:24:15;97226.22;;;19.85;90.00
21096;BME280;10706;49.036;12.112;2022-08-19T06:26:46;97225.09;;;19.86;89.71
21096;BME280;10706;49.036;12.112;2022-08-19T06:29:15;97224.59;;;19.84;88.95
21096;BME280;10706;49.036;12.112;2022-08-19T06:31:46;97225.34;;;19.98;87.53
21096;BME280;10706;49.036;12.112;2022-08-19T06:34:13;97231.03;;;19.88;88.31
21096;BME280;10706;49.036;12.112;2022-08-19T06:36:47;97232.72;;;19.84;88.86
21096;BME280;10706;49.036;12.112;2022-08-19T06:39:26;97236.19;;;19.75;88.86
21096;BME280;10706;49.036;12.112;2022-08-19T06:41:56;97250.00;;;19.88;88.11
21096;BME280;10706;49.036;12.112;2022-08-19T06:44:26;97253.91;;;19.81;87.80
21096;BME280;10706;49.036;12.112;2022-08-19T06:46:54;97258.84;;;19.79;88.95
21096;BME280;10706;49.036;12.112;2022-08-19T06:49:22;97259.16;;;19.78;89.84
21096;BME280;10706;49.036;12.112;2022-08-19T06:51:49;97254.59;;;19.87;89.88
21096;BME280;10706;49.036;12.112;2022-08-19T06:54:18;97266.38;;;19.83;89.51
21096;BME280;10706;49.036;12.112;2022-08-19T06:56:45;97267.72;;;19.94;87.15
21096;BME280;10706;49.036;12.112;2022-08-19T06:59:15;97268.97;;;19.88;87.67
21096;BME280;10706;49.036;12.112;2022-08-19T07:01:50;97269.50;;;19.76;87.98
21096;BME280;10706;49.036;12.112;2022-08-19T07:04:20;97262.69;;;19.78;87.42
21096;BME280;10706;49.036;12.112;2022-08-19T07:06:47;97255.47;;;19.96;86.16
21096;BME280;10706;49.036;12.112;2022-08-19T07:09:15;97260.88;;;19.74;86.86
21096;BME280;10706;49.036;12.112;2022-08-19T07:11:48;97249.69;;;19.53;88.92
21096;BME280;10706;49.036;12.112;2022-08-19T07:14:17;97245.34;;;19.52;88.96
21096;BME280;10706;49.036;12.112;2022-08-19T07:16:45;97227.63;;;19.46;90.18
21096;BME280;10706;49.036;12.112;2022-08-19T07:19:12;97228.31;;;19.51;90.85
21096;BME280;10706;49.036;12.112;2022-08-19T07:21:38;97231.97;;;19.69;89.82
21096;BME280;10706;49.036;12.112;2022-08-19T07:24:04;97243.06;;;19.81;89.45
21096;BME280;10706;49.036;12.112;2022-08-19T07:26:33;97245.53;;;19.69;89.79
21096;BME280;10706;49.036;12.112;2022-08-19T07:28:59;97255.44;;;19.74;89.51
21096;BME280;10706;49.036;12.112;2022-08-19T07:31:28;97248.44;;;19.73;89.18
21096;BME280;10706;49.036;12.112;2022-08-19T07:33:55;97256.41;;;19.92;88.33
21096;BME280;10706;49.036;12.112;2022-08-19T07:36:26;97252.38;;;19.89;89.20
21096;BME280;10706;49.036;12.112;2022-08-19T07:38:59;97259.78;;;19.97;88.73
21096;BME280;10706;49.036;12.112;2022-08-19T07:41:28;97256.41;;;20.23;86.64
21096;BME280;10706;49.036;12.112;2022-08-19T07:43:55;97263.69;;;20.14;86.95
21096;BME280;10706;49.036;12.112;2022-08-19T07:46:21;97261.31;;;20.12;87.71
21096;BME280;10706;49.036;12.112;2022-08-19T07:48:49;97264.22;;;20.16;87.53
21096;BME280;10706;49.036;12.112;2022-08-19T07:51:20;97265.69;;;20.22;87.30
21096;BME280;10706;49.036;12.112;2022-08-19T07:53:48;97264.88;;;20.22;87.64
21096;BME280;10706;49.036;12.112;2022-08-19T07:56:18;97272.88;;;20.27;86.83
21096;BME280;10706;49.036;12.112;2022-08-19T07:58:46;97263.28;;;20.20;87.25
21096;BME280;10706;49.036;12.112;2022-08-19T08:01:24;97270.91;;;20.41;86.70
21096;BME280;10706;49.036;12.112;2022-08-19T08:03:52;97269.09;;;20.59;83.88
21096;BME280;10706;49.036;12.112;2022-08-19T08:06:38;97266.53;;;20.31;85.49
21096;BME280;10706;49.036;12.112;2022-08-19T08:09:29;97255.72;;;20.40;85.93
21096;BME280;10706;49.036;12.112;2022-08-19T08:12:00;97256.09;;;20.47;86.53
21096;BME280;10706;49.036;12.112;2022-08-19T08:14:38;97258.78;;;20.70;85.54
21096;BME280;10706;49.036;12.112;2022-08-19T08:17:06;97247.66;;;20.89;84.29
21096;BME280;10706;49.036;12.112;2022-08-19T08:19:31;97246.00;;;21.19;84.03
21096;BME280;10706;49.036;12.112;2022-08-19T08:22:00;97242.63;;;21.22;82.75
21096;BME280;10706;49.036;12.112;2022-08-19T08:24:29;97245.53;;;21.34;82.22
21096;BME280;10706;49.036;12.112;2022-08-19T08:27:00;97242.41;;;21.50;81.35
21096;BME280;10706;49.036;12.112;2022-08-19T08:29:30;97252.00;;;21.47;80.40
21096;BME280;10706;49.036;12.112;2022-08-19T08:31:56;97242.88;;;21.61;79.11
21096;BME280;10706;49.036;12.112;2022-08-19T08:34:22;97236.16;;;21.49;79.24
21096;BME280;10706;49.036;12.112;2022-08-19T08:36:48;97240.31;;;21.82;77.66
21096;BME280;10706;49.036;12.112;2022-08-19T08:39:18;97230.81;;;22.23;76.00
21096;BME280;10706;49.036;12.112;2022-08-19T08:41:58;97226.19;;;22.32;75.57
21096;BME280;10706;49.036;12.112;2022-08-19T08:44:58;97225.50;;;22.52;76.86
21096;BME280;10706;49.036;12.112;2022-08-19T08:47:26;97224.19;;;22.88;75.06
21096;BME280;10706;49.036;12.112;2022-08-19T08:50:04;97230.00;;;23.17;72.09
21096;BME280;10706;49.036;12.112;2022-08-19T08:52:39;97223.81;;;22.99;72.13
21096;BME280;10706;49.036;12.112;2022-08-19T08:55:16;97213.13;;;22.55;73.12
21096;BME280;10706;49.036;12.112;2022-08-19T08:58:04;97196.56;;;22.78;72.13
21096;BME280;10706;49.036;12.112;2022-08-19T09:00:38;97200.66;;;22.84;71.60
21096;BME280;10706;49.036;12.112;2022-08-19T09:03:29;97202.44;;;22.88;70.62
21096;BME280;10706;49.036;12.112;2022-08-19T09:11:30;97211.88;;;23.21;72.80
21096;BME280;10706;49.036;12.112;2022-08-19T09:14:50;97216.00;;;23.69;69.90
21096;BME280;10706;49.036;12.112;2022-08-19T09:17:22;97218.78;;;23.39;69.31
21096;BME280;10706;49.036;12.112;2022-08-19T09:22:41;97230.94;;;22.44;73.67
21096;BME280;10706;49.036;12.112;2022-08-19T09:25:13;97232.41;;;22.41;74.74
21096;BME280;10706;49.036;12.112;2022-08-19T09:27:41;97239.88;;;22.53;74.18
21096;BME280;10706;49.036;12.112;2022-08-19T09:30:14;97235.00;;;22.29;74.85
21096;BME280;10706;49.036;12.112;2022-08-19T09:32:40;97238.03;;;22.10;77.18
21096;BME280;10706;49.036;12.112;2022-08-19T09:35:08;97240.75;;;22.19;77.03
21096;BME280;10706;49.036;12.112;2022-08-19T09:37:34;97248.56;;;22.20;74.99
21096;BME280;10706;49.036;12.112;2022-08-19T09:40:01;97250.97;;;22.39;73.64
21096;BME280;10706;49.036;12.112;2022-08-19T09:42:26;97243.94;;;22.38;73.45
21096;BME280;10706;49.036;12.112;2022-08-19T09:44:52;97251.56;;;22.54;72.63
21096;BME280;10706;49.036;12.112;2022-08-19T09:47:18;97256.22;;;22.44;74.41
21096;BME280;10706;49.036;12.112;2022-08-19T09:49:43;97259.53;;;22.67;74.05
21096;BME280;10706;49.036;12.112;2022-08-19T09:52:10;97260.16;;;22.73;73.02
21096;BME280;10706;49.036;12.112;2022-08-19T09:54:40;97264.38;;;22.91;70.86
21096;BME280;10706;49.036;12.112;2022-08-19T09:57:06;97263.59;;;22.82;71.28
21096;BME280;10706;49.036;12.112;2022-08-19T09:59:31;97269.66;;;22.88;69.85
21096;BME280;10706;49.036;12.112;2022-08-19T10:01:57;97268.81;;;22.58;71.59
21096;BME280;10706;49.036;12.112;2022-08-19T10:04:23;97266.94;;;22.49;71.28
21096;BME280;10706;49.036;12.112;2022-08-19T10:07:09;97268.59;;;22.24;73.50
21096;BME280;10706;49.036;12.112;2022-08-19T10:09:34;97268.75;;;22.19;72.97
21096;BME280;10706;49.036;12.112;2022-08-19T10:12:02;97276.75;;;22.33;72.18
21096;BME280;10706;49.036;12.112;2022-08-19T10:14:29;97277.53;;;22.25;72.14
21096;BME280;10706;49.036;12.112;2022-08-19T10:16:55;97275.00;;;22.28;72.46
21096;BME280;10706;49.036;12.112;2022-08-19T10:19:22;97281.88;;;22.00;73.06
21096;BME280;10706;49.036;12.112;2022-08-19T10:21:48;97273.88;;;22.12;73.18
21096;BME280;10706;49.036;12.112;2022-08-19T10:24:14;97269.38;;;22.16;72.43
21096;BME280;10706;49.036;12.112;2022-08-19T10:26:40;97270.50;;;21.98;72.80
21096;BME280;10706;49.036;12.112;2022-08-19T10:29:10;97263.19;;;21.98;73.25
21096;BME280;10706;49.036;12.112;2022-08-19T10:31:37;97261.38;;;22.11;73.02
21096;BME280;10706;49.036;12.112;2022-08-19T10:34:03;97246.03;;;21.98;73.62
21096;BME280;10706;49.036;12.112;2022-08-19T10:36:33;97256.78;;;21.85;74.68
21096;BME280;10706;49.036;12.112;2022-08-19T10:39:10;97246.56;;;21.91;75.03
21096;BME280;10706;49.036;12.112;2022-08-19T10:41:39;97246.19;;;22.19;73.83
21096;BME280;10706;49.036;12.112;2022-08-19T10:44:09;97256.53;;;22.43;72.92
21096;BME280;10706;49.036;12.112;2022-08-19T10:46:39;97255.69;;;22.60;73.29
21096;BME280;10706;49.036;12.112;2022-08-19T10:49:08;97252.31;;;22.71;71.89
21096;BME280;10706;49.036;12.112;2022-08-19T10:51:35;97242.13;;;22.89;71.16
21096;BME280;10706;49.036;12.112;2022-08-19T10:54:20;97255.03;;;22.71;72.61
21096;BME280;10706;49.036;12.112;2022-08-19T10:56:46;97247.72;;;22.93;71.73
21096;BME280;10706;49.036;12.112;2022-08-19T10:59:29;97240.09;;;23.16;71.65
21096;BME280;10706;49.036;12.112;2022-08-19T11:02:00;97241.09;;;23.54;67.97
21096;BME280;10706;49.036;12.112;2022-08-19T11:04:26;97255.06;;;23.31;68.13
21096;BME280;10706;49.036;12.112;2022-08-19T11:06:52;97240.00;;;23.34;68.96
21096;BME280;10706;49.036;12.112;2022-08-19T11:09:25;97230.19;;;23.33;68.19
21096;BME280;10706;49.036;12.112;2022-08-19T11:11:53;97238.66;;;23.40;68.35
21096;BME280;10706;49.036;12.112;2022-08-19T11:14:20;97237.25;;;23.34;68.09
21096;BME280;10706;49.036;12.112;2022-08-19T11:16:48;97243.75;;;23.20;68.43
21096;BME280;10706;49.036;12.112;2022-08-19T11:19:15;97234.22;;;23.05;68.56
21096;BME280;10706;49.036;12.112;2022-08-19T11:21:47;97246.31;;;22.87;70.13
21096;BME280;10706;49.036;12.112;2022-08-19T11:24:20;97238.22;;;22.69;70.95
21096;BME280;10706;49.036;12.112;2022-08-19T11:26:49;97240.59;;;22.71;71.47
21096;BME280;10706;49.036;12.112;2022-08-19T11:29:17;97240.09;;;22.78;70.31
21096;BME280;10706;49.036;12.112;2022-08-19T11:31:46;97239.72;;;22.49;72.20
21096;BME280;10706;49.036;12.112;2022-08-19T11:34:21;97238.38;;;22.00;74.23
21096;BME280;10706;49.036;12.112;2022-08-19T11:36:50;97240.78;;;21.75;74.35
21096;BME280;10706;49.036;12.112;2022-08-19T11:39:19;97238.03;;;21.40;76.65
21096;BME280;10706;49.036;12.112;2022-08-19T11:41:46;97241.78;;;20.95;79.39
21096;BME280;10706;49.036;12.112;2022-08-19T11:44:12;97242.31;;;20.35;81.70
21096;BME280;10706;49.036;12.112;2022-08-19T11:46:40;97240.50;;;19.99;85.48
21096;BME280;10706;49.036;12.112;2022-08-19T11:49:07;97242.78;;;20.06;85.77
21096;BME280;10706;49.036;12.112;2022-08-19T11:51:35;97246.66;;;19.91;86.83
21096;BME280;10706;49.036;12.112;2022-08-19T11:54:01;97235.59;;;19.78;87.23
21096;BME280;10706;49.036;12.112;2022-08-19T11:56:29;97236.75;;;19.86;87.88
21096;BME280;10706;49.036;12.112;2022-08-19T11:58:56;97241.00;;;19.78;89.89
21096;BME280;10706;49.036;12.112;2022-08-19T12:01:24;97232.38;;;19.76;89.44
21096;BME280;10706;49.036;12.112;2022-08-19T12:03:53;97226.16;;;19.76;89.84
21096;BME280;10706;49.036;12.112;2022-08-19T12:06:24;97220.94;;;19.66;90.75
21096;BME280;10706;49.036;12.112;2022-08-19T12:08:55;97223.69;;;19.52;91.55
21096;BME280;10706;49.036;12.112;2022-08-19T12:11:22;97228.06;;;19.39;92.74
21096;BME280;10706;49.036;12.112;2022-08-19T12:13:49;97226.63;;;19.41;94.18
21096;BME280;10706;49.036;12.112;2022-08-19T12:16:20;97230.44;;;19.40;93.76
21096;BME280;10706;49.036;12.112;2022-08-19T12:18:49;97225.47;;;19.34;93.85
21096;BME280;10706;49.036;12.112;2022-08-19T12:21:24;97223.53;;;19.34;94.91
21096;BME280;10706;49.036;12.112;2022-08-19T12:23:53;97229.25;;;19.33;94.75
21096;BME280;10706;49.036;12.112;2022-08-19T12:26:21;97230.09;;;19.33;94.75
21096;BME280;10706;49.036;12.112;2022-08-19T12:28:47;97224.69;;;19.19;95.37
21096;BME280;10706;49.036;12.112;2022-08-19T12:31:14;97220.59;;;19.22;95.45
21096;BME280;10706;49.036;12.112;2022-08-19T12:33:41;97210.84;;;19.21;96.60
21096;BME280;10706;49.036;12.112;2022-08-19T12:36:11;97214.25;;;19.27;96.27
21096;BME280;10706;49.036;12.112;2022-08-19T12:38:38;97220.66;;;19.31;96.88
21096;BME280;10706;49.036;12.112;2022-08-19T12:41:06;97224.13;;;19.45;96.53
21096;BME280;10706;49.036;12.112;2022-08-19T12:43:33;97220.41;;;19.77;96.64
21096;BME280;10706;49.036;12.112;2022-08-19T12:46:01;97222.25;;;19.91;96.26
21096;BME280;10706;49.036;12.112;2022-08-19T12:48:27;97216.59;;;20.01;95.78
21096;BME280;10706;49.036;12.112;2022-08-19T12:50:53;97215.16;;;20.26;95.34
21096;BME280;10706;49.036;12.112;2022-08-19T12:53:19;97221.22;;;20.32;93.74
21096;BME280;10706;49.036;12.112;2022-08-19T12:55:45;97222.19;;;20.27;93.49
21096;BME280;10706;49.036;12.112;2022-08-19T12:58:12;97218.53;;;20.32;92.13
21096;BME280;10706;49.036;12.112;2022-08-19T13:00:39;97218.13;;;20.47;93.03
21096;BME280;10706;49.036;12.112;2022-08-19T13:03:07;97222.53;;;20.66;91.95
21096;BME280;10706;49.036;12.112;2022-08-19T13:05:34;97215.22;;;20.75;91.71
21096;BME280;10706;49.036;12.112;2022-08-19T13:08:00;97215.88;;;20.81;91.14
21096;BME280;10706;49.036;12.112;2022-08-19T13:10:32;97216.22;;;20.88;91.54
21096;BME280;10706;49.036;12.112;2022-08-19T13:13:08;97221.84;;;21.09;91.11